Time;durP1;ratioP1;P1;durP2;ratioP2;P2;SDS_P1;SDS_P2;PMS_P1;PMS_P2;Temp;Humidity;BMP_temperature;BMP_pressure;BME280_temperature;BME280_humidity;BME280_pressure;Samples;Min_cycle;Max_cycle;Signal;HPM_P1;HPM_P2
2023/04/25 00:01:13;;;;;;;12.40;1.85;;;6.60;99.90;;;;;;5054352;28;20076;-65
2023/04/25 00:03:39;;;;;;;9.02;1.75;;;6.60;99.90;;;;;;5054067;28;20056;-64
2023/04/25 00:06:06;;;;;;;3.13;1.30;;;6.70;99.90;;;;;;5053907;28;20049;-65
2023/04/25 00:08:32;;;;;;;6.47;1.48;;;6.60;99.90;;;;;;5036078;28;20408;-64
2023/04/25 00:10:58;;;;;;;10.25;1.58;;;6.60;99.90;;;;;;5054196;28;20044;-65
2023/04/25 00:13:25;;;;;;;2.65;1.10;;;6.60;99.90;;;;;;5054147;28;20037;-65
2023/04/25 00:15:52;;;;;;;5.47;1.17;;;6.60;99.90;;;;;;5035933;28;20049;-65
2023/04/25 00:18:21;;;;;;;4.22;1.42;;;6.60;99.90;;;;;;5053996;28;20098;-65
2023/04/25 00:20:47;;;;;;;5.03;1.65;;;6.70;99.90;;;;;;5053936;28;20032;-65
2023/04/25 00:23:17;;;;;;;10.30;2.20;;;6.70;99.90;;;;;;5053970;28;20044;-65
2023/04/25 00:25:49;;;;;;;3.90;1.25;;;6.70;99.90;;;;;;5053969;28;20564;-65
2023/04/25 00:28:15;;;;;;;6.65;1.80;;;6.70;99.90;;;;;;5053938;28;20483;-65
2023/04/25 00:30:41;;;;;;;7.47;2.22;;;6.70;99.90;;;;;;5035919;28;20215;-67
2023/04/25 00:33:07;;;;;;;9.85;1.60;;;6.70;99.90;;;;;;5053806;28;20049;-63
2023/04/25 00:35:34;;;;;;;6.25;1.15;;;6.70;99.90;;;;;;5053770;28;20037;-64
2023/04/25 00:37:59;;;;;;;5.45;1.58;;;6.60;99.90;;;;;;5053622;28;20064;-64
2023/04/25 00:40:25;;;;;;;8.68;1.67;;;6.60;99.90;;;;;;5036053;28;20032;-64
2023/04/25 00:42:52;;;;;;;10.27;1.73;;;6.60;99.90;;;;;;5053577;28;20098;-63
2023/04/25 00:45:18;;;;;;;11.65;1.70;;;6.50;99.90;;;;;;5053191;28;20045;-64
2023/04/25 00:47:44;;;;;;;3.58;1.40;;;7.80;99.90;;;;;;5053489;28;20162;-64
2023/04/25 00:50:10;;;;;;;7.00;1.63;;;6.50;99.90;;;;;;5053222;28;20075;-64
2023/04/25 00:52:40;;;;;;;3.20;1.42;;;6.60;99.90;;;;;;5053449;28;20131;-64
2023/04/25 00:55:07;;;;;;;4.72;1.65;;;6.50;99.90;;;;;;5053585;28;20032;-63
2023/04/25 00:57:34;;;;;;;6.15;1.60;;;6.50;99.90;;;;;;5053032;28;20037;-64
2023/04/25 00:59:59;;;;;;;3.95;1.40;;;6.50;99.90;;;;;;5053271;28;20048;-64
2023/04/25 01:02:26;;;;;;;4.43;1.40;;;6.50;99.90;;;;;;5053320;28;20468;-63
2023/04/25 01:04:52;;;;;;;6.03;1.30;;;6.50;99.90;;;;;;5037669;28;20052;-64
2023/04/25 01:07:18;;;;;;;8.80;1.50;;;6.50;99.90;;;;;;5053263;28;20412;-64
2023/04/25 01:09:44;;;;;;;2.95;1.42;;;6.50;99.90;;;;;;5052619;28;20032;-64
2023/04/25 01:12:09;;;;;;;5.47;1.45;;;6.50;99.90;;;;;;5051905;28;20064;-64
2023/04/25 01:14:35;;;;;;;4.78;1.25;;;6.40;99.90;;;;;;5052837;28;20086;-64
2023/04/25 01:17:01;;;;;;;5.30;1.85;;;6.40;99.90;;;;;;5053056;28;20044;-64
2023/04/25 01:19:27;;;;;;;3.88;0.93;;;6.40;99.90;;;;;;5053113;28;20452;-64
2023/04/25 01:21:52;;;;;;;5.72;1.67;;;6.40;99.90;;;;;;5052802;28;20524;-64
2023/04/25 01:24:18;;;;;;;7.55;1.27;;;6.40;99.90;;;;;;5052758;28;20091;-64
2023/04/25 01:26:49;;;;;;;9.50;1.42;;;6.40;99.90;;;;;;5053032;28;20442;-64
2023/04/25 01:29:16;;;;;;;6.95;1.60;;;6.40;99.90;;;;;;5052776;28;20037;-64
2023/04/25 01:31:42;;;;;;;6.32;1.17;;;6.40;99.90;;;;;;5052888;28;20503;-63
2023/04/25 01:34:07;;;;;;;3.58;1.40;;;6.30;99.90;;;;;;5052963;28;20033;-64
2023/04/25 01:36:34;;;;;;;8.88;0.80;;;6.30;99.90;;;;;;5052925;28;20037;-63
2023/04/25 01:39:01;;;;;;;11.38;1.48;;;6.30;99.90;;;;;;5052775;28;20068;-63
2023/04/25 01:41:27;;;;;;;6.35;1.73;;;6.20;99.90;;;;;;5052530;28;20041;-64
2023/04/25 01:43:53;;;;;;;4.00;1.45;;;6.20;99.90;;;;;;5052802;28;20116;-64
2023/04/25 01:46:18;;;;;;;7.68;1.38;;;6.10;99.90;;;;;;5052770;28;20045;-63
2023/04/25 01:48:44;;;;;;;6.82;1.35;;;6.10;99.90;;;;;;5052830;28;20553;-64
2023/04/25 01:51:11;;;;;;;6.10;1.23;;;6.10;99.90;;;;;;5052732;28;20123;-64
2023/04/25 01:53:37;;;;;;;8.15;1.42;;;6.10;99.90;;;;;;5052796;28;20084;-64
2023/04/25 01:56:03;;;;;;;7.65;1.25;;;6.10;99.90;;;;;;5052765;28;20048;-64
2023/04/25 01:58:28;;;;;;;11.02;1.60;;;6.10;99.90;;;;;;5052676;28;20404;-63
2023/04/25 02:00:54;;;;;;;4.22;1.25;;;6.10;99.90;;;;;;5052703;28;20048;-63
2023/04/25 02:03:20;;;;;;;10.25;1.55;;;6.10;99.90;;;;;;5052309;28;20559;-64
2023/04/25 02:05:45;;;;;;;7.28;1.17;;;6.10;99.90;;;;;;5052280;28;20053;-63
2023/04/25 02:08:11;;;;;;;10.05;1.40;;;6.10;99.90;;;;;;5052395;28;20439;-63
2023/04/25 02:10:37;;;;;;;5.50;1.20;;;6.10;99.90;;;;;;5052595;28;20116;-64
2023/04/25 02:13:05;;;;;;;3.13;0.77;;;6.10;99.90;;;;;;5052535;28;20044;-63
2023/04/25 02:15:30;;;;;;;14.70;1.48;;;6.10;99.90;;;;;;5052267;28;20408;-63
2023/04/25 02:17:57;;;;;;;7.88;1.55;;;6.10;99.90;;;;;;5052391;28;20048;-63
2023/04/25 02:20:24;;;;;;;2.28;0.90;;;6.10;99.90;;;;;;5054065;28;20037;-64
2023/04/25 02:22:51;;;;;;;5.93;1.90;;;6.10;99.90;;;;;;5056202;28;20476;-64
2023/04/25 02:25:19;;;;;;;4.50;0.98;;;6.00;99.90;;;;;;5056270;28;20391;-64
2023/04/25 02:27:45;;;;;;;3.15;0.85;;;6.00;99.90;;;;;;5056148;28;20045;-64
2023/04/25 02:30:11;;;;;;;5.32;1.02;;;6.00;99.90;;;;;;5055871;28;20116;-64
2023/04/25 02:32:37;;;;;;;1.88;0.80;;;6.00;99.90;;;;;;5056016;28;20073;-63
2023/04/25 02:35:03;;;;;;;3.28;1.08;;;6.00;99.90;;;;;;5056040;28;20033;-64
2023/04/25 02:37:33;;;;;;;5.38;1.20;;;6.00;99.90;;;;;;5055857;28;20389;-63
2023/04/25 02:39:59;;;;;;;1.23;0.80;;;6.00;99.90;;;;;;5055938;28;20044;-64
2023/04/25 02:42:26;;;;;;;6.53;0.85;;;5.90;99.90;;;;;;5055644;28;20033;-63
2023/04/25 02:44:52;;;;;;;3.83;1.23;;;5.90;99.90;;;;;;5055853;28;20041;-64
2023/04/25 02:47:17;;;;;;;5.32;1.10;;;5.90;99.90;;;;;;5055832;28;20041;-63
2023/04/25 02:49:43;;;;;;;4.75;0.85;;;5.90;99.90;;;;;;5055462;28;20488;-64
2023/04/25 02:52:08;;;;;;;1.65;0.90;;;5.90;99.90;;;;;;5055675;28;20045;-64
2023/04/25 02:54:34;;;;;;;4.03;1.40;;;5.90;99.90;;;;;;5037807;28;20079;-64
2023/04/25 02:57:00;;;;;;;2.25;0.82;;;5.90;99.90;;;;;;5055526;28;20488;-64
2023/04/25 02:59:26;;;;;;;3.10;0.88;;;5.90;99.90;;;;;;5055604;28;20432;-64
2023/04/25 03:01:52;;;;;;;5.75;1.33;;;5.90;99.90;;;;;;5055510;28;20037;-63
2023/04/25 03:04:18;;;;;;;14.25;1.20;;;5.90;99.90;;;;;;5055238;28;20412;-64
2023/04/25 03:06:44;;;;;;;2.17;1.08;;;5.90;99.90;;;;;;5055191;28;20049;-64
2023/04/25 03:09:10;;;;;;;6.93;1.02;;;5.90;99.90;;;;;;5055328;28;20041;-64
2023/04/25 03:11:38;;;;;;;10.98;1.02;;;5.90;99.90;;;;;;5037542;28;20041;-64
2023/04/25 03:14:03;;;;;;;3.60;1.13;;;5.90;99.90;;;;;;5055289;28;20052;-63
2023/04/25 03:16:29;;;;;;;6.07;1.17;;;5.80;99.90;;;;;;5055303;28;20033;-64
2023/04/25 03:18:55;;;;;;;2.00;0.88;;;5.90;99.90;;;;;;5054768;28;20036;-64
2023/04/25 03:21:20;;;;;;;2.70;0.98;;;5.90;99.90;;;;;;5054900;28;20037;-63
2023/04/25 03:23:46;;;;;;;1.27;0.68;;;5.90;99.90;;;;;;5054863;28;20032;-63
2023/04/25 03:26:11;;;;;;;4.50;0.82;;;5.90;99.90;;;;;;5055059;28;20491;-64
2023/04/25 03:28:37;;;;;;;2.72;0.88;;;5.90;99.90;;;;;;5054778;28;20457;-64
2023/04/25 03:31:03;;;;;;;1.88;0.85;;;5.80;99.90;;;;;;5054797;28;20041;-64
2023/04/25 03:33:28;;;;;;;4.57;0.77;;;5.90;99.90;;;;;;5054347;28;20088;-64
2023/04/25 03:35:54;;;;;;;2.33;1.20;;;5.90;99.90;;;;;;5054588;28;20037;-64
2023/04/25 03:38:19;;;;;;;8.35;1.30;;;5.90;99.90;;;;;;5054790;28;20037;-64
2023/04/25 03:40:45;;;;;;;1.10;0.82;;;5.90;99.90;;;;;;5054787;28;20035;-64
2023/04/25 03:43:11;;;;;;;3.25;1.15;;;5.90;99.90;;;;;;5036917;28;20047;-67
2023/04/25 03:45:36;;;;;;;6.63;0.88;;;5.80;99.90;;;;;;5054735;28;20033;-64
2023/04/25 03:48:02;;;;;;;5.78;0.90;;;5.80;99.90;;;;;;5054650;28;20040;-64
2023/04/25 03:50:28;;;;;;;2.35;1.25;;;5.80;99.90;;;;;;5054620;28;20051;-64
2023/04/25 03:52:53;;;;;;;4.75;1.10;;;5.80;99.90;;;;;;5054514;28;20135;-64
2023/04/25 03:55:19;;;;;;;5.03;1.30;;;5.80;99.90;;;;;;5054572;28;20043;-63
2023/04/25 03:57:45;;;;;;;6.35;1.15;;;5.80;99.90;;;;;;5054155;28;20049;-64
2023/04/25 04:00:11;;;;;;;5.18;1.40;;;5.80;99.90;;;;;;5054130;28;20119;-64
2023/04/25 04:02:38;;;;;;;2.85;0.88;;;5.80;99.90;;;;;;5054429;28;20037;-64
2023/04/25 04:05:05;;;;;;;5.18;1.10;;;5.80;99.90;;;;;;5054060;28;20412;-64
2023/04/25 04:07:32;;;;;;;6.47;0.82;;;5.80;99.90;;;;;;5054036;28;20049;-64
2023/04/25 04:09:58;;;;;;;2.35;0.60;;;5.80;99.90;;;;;;5053981;28;20044;-64
2023/04/25 04:12:24;;;;;;;2.03;0.70;;;5.80;99.90;;;;;;5054227;28;20041;-64
2023/04/25 04:14:50;;;;;;;6.93;1.05;;;5.80;99.90;;;;;;5054130;28;20045;-64
2023/04/25 04:17:15;;;;;;;4.88;0.82;;;5.80;99.90;;;;;;5053890;28;20407;-64
2023/04/25 04:19:41;;;;;;;4.10;1.10;;;5.70;99.90;;;;;;5053951;28;20041;-64
2023/04/25 04:22:07;;;;;;;1.50;0.68;;;5.70;99.90;;;;;;5054067;28;20120;-63
2023/04/25 04:24:32;;;;;;;3.70;0.60;;;5.70;99.90;;;;;;5053727;28;20033;-63
2023/04/25 04:26:58;;;;;;;4.65;1.10;;;5.60;99.90;;;;;;5035910;28;20049;-63
2023/04/25 04:29:24;;;;;;;3.55;1.10;;;5.60;99.90;;;;;;5053900;28;20106;-64
2023/04/25 04:31:52;;;;;;;6.55;1.48;;;5.50;99.90;;;;;;5053789;28;20482;-65
2023/04/25 04:34:18;;;;;;;2.33;0.65;;;5.50;99.90;;;;;;5053811;28;20604;-64
2023/04/25 04:36:46;;;;;;;2.33;1.00;;;5.40;99.90;;;;;;5035881;28;20556;-64
2023/04/25 04:39:12;;;;;;;5.32;0.88;;;5.40;99.90;;;;;;5053748;28;20171;-64
2023/04/25 04:41:38;;;;;;;7.40;0.90;;;5.50;99.90;;;;;;5035578;28;20061;-64
2023/04/25 04:44:04;;;;;;;1.23;0.60;;;5.40;99.90;;;;;;5034771;28;20162;-64
2023/04/25 04:46:37;;;;;;;5.35;0.95;;;5.90;99.90;;;;;;5035456;28;20044;-64
2023/04/25 04:49:04;;;;;;;3.85;0.80;;;5.40;99.90;;;;;;5053498;28;20449;-63
2023/04/25 04:51:31;;;;;;;3.65;0.65;;;5.40;99.90;;;;;;5053130;28;20094;-63
2023/04/25 04:53:58;;;;;;;1.60;0.63;;;5.40;99.90;;;;;;5053332;28;20489;-63
2023/04/25 04:56:25;;;;;;;2.35;0.57;;;5.40;99.90;;;;;;5053374;28;20396;-63
2023/04/25 04:58:52;;;;;;;1.30;0.60;;;5.40;99.90;;;;;;5053278;28;20381;-64
2023/04/25 05:01:18;;;;;;;2.78;0.93;;;5.30;99.90;;;;;;5053292;28;20053;-63
2023/04/25 05:03:43;;;;;;;2.72;0.75;;;5.30;99.90;;;;;;5053291;28;20487;-63
2023/04/25 05:06:09;;;;;;;2.65;0.65;;;5.30;99.90;;;;;;5052812;28;20562;-63
2023/04/25 05:08:36;;;;;;;6.50;0.95;;;5.30;99.90;;;;;;5053291;28;20047;-63
2023/04/25 05:11:01;;;;;;;5.47;1.35;;;6.40;99.90;;;;;;5053091;28;20408;-63
2023/04/25 05:13:27;;;;;;;3.03;0.70;;;5.30;99.90;;;;;;5053202;28;20040;-63
2023/04/25 05:15:52;;;;;;;1.10;0.57;;;5.30;99.90;;;;;;5051852;28;20044;-63
2023/04/25 05:18:18;;;;;;;0.85;0.80;;;5.30;99.90;;;;;;5052730;28;20428;-63
2023/04/25 05:20:44;;;;;;;5.32;0.98;;;5.30;99.90;;;;;;5034936;28;20116;-63
2023/04/25 05:23:09;;;;;;;3.60;1.00;;;5.40;99.90;;;;;;5052922;28;20035;-64
2023/04/25 05:25:35;;;;;;;6.82;1.17;;;5.40;99.90;;;;;;5052611;28;20064;-63
2023/04/25 05:28:00;;;;;;;2.65;0.75;;;5.40;99.90;;;;;;5053000;28;20045;-62
2023/04/25 05:30:26;;;;;;;1.70;0.63;;;5.40;99.90;;;;;;5052932;28;20420;-63
2023/04/25 05:32:52;;;;;;;7.45;1.40;;;5.40;99.90;;;;;;5052925;28;20453;-62
2023/04/25 05:35:17;;;;;;;2.22;0.47;;;5.50;99.90;;;;;;5052870;28;20036;-63
2023/04/25 05:37:43;;;;;;;2.53;0.90;;;5.50;99.90;;;;;;5034808;28;20041;-63
2023/04/25 05:40:09;;;;;;;2.40;1.00;;;6.20;99.90;;;;;;5052825;28;20040;-65
2023/04/25 05:42:35;;;;;;;3.15;0.80;;;5.60;99.90;;;;;;5052837;28;20037;-63
2023/04/25 05:45:00;;;;;;;6.47;0.68;;;5.60;99.90;;;;;;5052780;28;20534;-65
2023/04/25 05:47:26;;;;;;;0.68;0.68;;;5.60;99.90;;;;;;5052777;28;20373;-64
2023/04/25 05:49:52;;;;;;;2.25;0.60;;;5.60;99.90;;;;;;5052385;28;20037;-63
2023/04/25 05:52:17;;;;;;;5.35;1.30;;;5.60;99.90;;;;;;5052735;28;20044;-62
2023/04/25 05:54:43;;;;;;;3.58;1.05;;;5.60;99.90;;;;;;5053225;28;20170;-63
2023/04/25 05:57:08;;;;;;;0.45;0.32;;;5.60;99.90;;;;;;5056424;28;20045;-66
2023/04/25 05:59:34;;;;;;;2.35;0.88;;;5.70;99.90;;;;;;5056729;28;20074;-63
2023/04/25 06:02:00;;;;;;;1.35;0.82;;;5.70;99.90;;;;;;5056643;28;20044;-64
2023/04/25 06:04:26;;;;;;;1.08;0.70;;;5.80;99.90;;;;;;5038563;28;20037;-63
2023/04/25 06:06:51;;;;;;;4.38;1.00;;;5.90;99.90;;;;;;5056244;28;20369;-64
2023/04/25 06:09:17;;;;;;;1.42;0.93;;;6.00;99.90;;;;;;5056634;28;20069;-64
2023/04/25 06:11:42;;;;;;;0.95;0.50;;;6.10;99.90;;;;;;5056540;28;20040;-65
2023/04/25 06:14:08;;;;;;;2.72;0.98;;;6.20;99.90;;;;;;5056491;28;20057;-65
2023/04/25 06:16:34;;;;;;;2.17;0.93;;;6.30;99.90;;;;;;5056441;28;20362;-65
2023/04/25 06:18:59;;;;;;;3.13;1.17;;;6.30;99.90;;;;;;5056260;28;20041;-65
2023/04/25 06:21:25;;;;;;;3.50;0.75;;;6.30;99.90;;;;;;5056302;28;20033;-65
2023/04/25 06:23:51;;;;;;;1.77;0.70;;;6.50;99.90;;;;;;5056055;28;20425;-66
2023/04/25 06:26:16;;;;;;;2.13;0.70;;;6.40;99.90;;;;;;5038397;28;20051;-66
2023/04/25 06:28:42;;;;;;;3.42;0.77;;;6.60;99.90;;;;;;5038353;28;20494;-66
2023/04/25 06:31:08;;;;;;;2.67;1.15;;;6.60;99.90;;;;;;5056106;28;20069;-65
2023/04/25 06:33:33;;;;;;;2.03;0.55;;;6.80;99.90;;;;;;5056036;28;20480;-65
2023/04/25 06:35:59;;;;;;;4.90;1.13;;;6.90;99.90;;;;;;5055881;28;20056;-66
2023/04/25 06:38:25;;;;;;;2.47;0.77;;;7.10;99.90;;;;;;5037653;28;20128;-65
2023/04/25 06:40:51;;;;;;;10.55;1.00;;;7.20;99.90;;;;;;5037688;28;20408;-66
2023/04/25 06:43:16;;;;;;;4.72;0.75;;;7.10;99.90;;;;;;5055827;28;20073;-67
2023/04/25 06:45:42;;;;;;;1.77;0.68;;;7.00;99.90;;;;;;5055801;28;20072;-66
2023/04/25 06:48:08;;;;;;;4.15;1.13;;;7.60;55.10;;;;;;5055377;28;20102;-66
2023/04/25 06:50:34;;;;;;;4.43;0.75;;;6.90;1.00;;;;;;5055578;28;20106;-66
2023/04/25 06:53:01;;;;;;;2.75;0.77;;;7.10;8.20;;;;;;5055324;28;20116;-65
2023/04/25 06:55:27;;;;;;;1.90;1.00;;;7.20;1.00;;;;;;5055231;28;20033;-65
2023/04/25 06:57:52;;;;;;;0.90;0.50;;;7.40;3.80;;;;;;5055188;28;20370;-65
2023/04/25 07:00:18;;;;;;;5.20;0.63;;;7.60;1.00;;;;;;5055646;28;20036;-66
2023/04/25 07:02:44;;;;;;;7.25;1.08;;;7.70;1.00;;;;;;5037519;28;20029;-66
2023/04/25 07:05:10;;;;;;;1.08;0.60;;;7.60;99.90;;;;;;5055083;28;20056;-66
2023/04/25 07:07:35;;;;;;;3.50;0.88;;;7.80;99.90;;;;;;5054145;28;20052;-66
2023/04/25 07:10:01;;;;;;;3.67;0.85;;;7.90;1.00;;;;;;5055168;28;20088;-65
2023/04/25 07:12:27;;;;;;;3.22;0.82;;;8.00;1.00;;;;;;5054829;28;20041;-66
2023/04/25 07:14:52;;;;;;;3.28;0.68;;;7.90;99.90;;;;;;5036983;28;20044;-66
2023/04/25 07:17:18;;;;;;;5.50;0.65;;;7.90;99.90;;;;;;5037340;28;20057;-66
2023/04/25 07:19:44;;;;;;;3.05;0.82;;;7.90;99.90;;;;;;5055117;28;20103;-66
2023/04/25 07:22:10;;;;;;;2.50;0.80;;;6.10;99.90;;;;;;5054999;28;20044;-66
2023/04/25 07:24:35;;;;;;;3.92;0.88;;;8.10;99.90;;;;;;5054959;28;20105;-67
2023/04/25 07:27:02;;;;;;;3.40;0.90;;;8.30;99.90;;;;;;5054580;28;20070;-66
2023/04/25 07:29:27;;;;;;;3.40;1.20;;;8.40;99.90;;;;;;5037101;28;20037;-66
2023/04/25 07:31:54;;;;;;;3.05;0.68;;;8.30;99.90;;;;;;5054826;28;20060;-65
2023/04/25 07:34:19;;;;;;;2.55;0.73;;;8.10;25.00;;;;;;5054614;28;20040;-66
2023/04/25 07:36:45;;;;;;;3.20;1.00;;;7.80;99.90;;;;;;5054902;28;20033;-66
2023/04/25 07:39:11;;;;;;;0.98;0.60;;;7.70;99.90;;;;;;5054558;28;20098;-66
2023/04/25 07:41:36;;;;;;;1.55;0.40;;;7.60;99.90;;;;;;5054796;28;20396;-65
2023/04/25 07:44:02;;;;;;;3.60;0.85;;;7.80;99.90;;;;;;5054744;28;20040;-65
2023/04/25 07:46:28;;;;;;;0.50;0.43;;;8.00;99.90;;;;;;5054831;28;20037;-65
2023/04/25 07:48:53;;;;;;;3.15;0.38;;;8.10;1.00;;;;;;5054400;28;20377;-66
2023/04/25 07:51:19;;;;;;;0.65;0.32;;;8.40;1.00;;;;;;5054641;28;20083;-65
2023/04/25 07:53:46;;;;;;;5.13;1.23;;;8.50;99.90;;;;;;5036465;28;20080;-65
2023/04/25 07:56:11;;;;;;;2.00;0.70;;;8.70;1.00;;;;;;5054582;28;20511;-65
2023/04/25 07:58:37;;;;;;;1.10;0.40;;;8.70;99.90;;;;;;5054214;28;20049;-66
2023/04/25 08:01:03;;;;;;;7.68;2.00;;;8.70;99.90;;;;;;5054394;28;20067;-67
2023/04/25 08:03:28;;;;;;;0.68;0.40;;;8.60;99.90;;;;;;5036290;28;20053;-66
2023/04/25 08:05:54;;;;;;;2.53;0.40;;;8.60;99.90;;;;;;5053928;28;20551;-65
2023/04/25 08:08:20;;;;;;;4.15;0.73;;;8.60;99.90;;;;;;5054245;28;20036;-66
2023/04/25 08:10:45;;;;;;;1.85;0.38;;;8.60;1.00;;;;;;5053935;28;20507;-66
2023/04/25 08:13:11;;;;;;;1.38;0.50;;;8.50;1.00;;;;;;5036394;28;20033;-66
2023/04/25 08:15:37;;;;;;;1.55;0.50;;;8.50;1.00;;;;;;5054151;28;20052;-66
2023/04/25 08:18:02;;;;;;;1.23;0.45;;;8.50;1.00;;;;;;5053940;28;20037;-64
2023/04/25 08:20:28;;;;;;;2.53;0.93;;;8.50;1.00;;;;;;5054070;28;20032;-65
2023/04/25 08:22:53;;;;;;;1.70;0.47;;;8.50;99.90;;;;;;5054040;28;20491;-65
2023/04/25 08:25:19;;;;;;;1.98;0.40;;;8.50;99.90;;;;;;5053954;28;20534;-65
2023/04/25 08:27:45;;;;;;;1.73;0.60;;;8.50;99.90;;;;;;5053960;28;20410;-66
2023/04/25 08:30:11;;;;;;;3.15;0.63;;;8.40;99.90;;;;;;5053932;28;20403;-66
2023/04/25 08:32:38;;;;;;;4.45;0.80;;;8.70;99.90;;;;;;5053893;28;20539;-66
2023/04/25 08:35:04;;;;;;;0.88;0.60;;;8.90;99.90;;;;;;5035714;28;20415;-65
2023/04/25 08:37:29;;;;;;;2.00;0.68;;;9.00;1.00;;;;;;5053639;28;20048;-65
2023/04/25 08:39:56;;;;;;;0.77;0.40;;;9.10;99.90;;;;;;5053401;28;20440;-65
2023/04/25 08:42:23;;;;;;;1.98;0.50;;;9.30;1.00;;;;;;5035530;28;20071;-66
2023/04/25 08:44:49;;;;;;;1.73;0.50;;;9.40;99.90;;;;;;5052174;28;20112;-65
2023/04/25 08:47:15;;;;;;;2.45;0.40;;;9.40;95.30;;;;;;5053523;28;20052;-65
2023/04/25 08:49:46;;;;;;;1.20;0.55;;;9.60;99.90;;;;;;5053119;28;20036;-65
2023/04/25 08:52:13;;;;;;;0.65;0.40;;;10.90;68.40;;;;;;5053286;28;20127;-66
2023/04/25 08:54:45;;;;;;;0.52;0.30;;;9.80;1.00;;;;;;5053154;28;20492;-65
2023/04/25 08:57:11;;;;;;;1.65;0.65;;;9.30;88.70;;;;;;5053413;28;20069;-65
2023/04/25 08:59:39;;;;;;;1.25;0.50;;;8.90;70.40;;;;;;5053094;28;20072;-66
2023/04/25 09:02:04;;;;;;;0.68;0.45;;;8.40;99.90;;;;;;5035210;28;20072;-66
2023/04/25 09:04:33;;;;;;;0.40;0.30;;;8.00;99.90;;;;;;5053119;28;20543;-66
2023/04/25 09:06:59;;;;;;;1.95;0.38;;;7.80;1.00;;;;;;5052966;28;20057;-66
2023/04/25 09:09:24;;;;;;;3.08;0.25;;;7.60;1.00;;;;;;5053258;28;20036;-66
2023/04/25 09:11:50;;;;;;;2.45;0.63;;;7.40;1.00;;;;;;5053153;28;20041;-65
2023/04/25 09:14:21;;;;;;;0.32;0.28;;;7.40;99.90;;;;;;5053168;28;20036;-66
2023/04/25 09:16:56;;;;;;;0.20;0.20;;;7.50;99.90;;;;;;5035263;28;20040;-65
2023/04/25 09:19:35;;;;;;;0.43;0.32;;;7.80;99.90;;;;;;5053122;28;20049;-65
2023/04/25 09:22:03;;;;;;;1.52;0.55;;;8.20;99.90;;;;;;5052788;28;20037;-65
2023/04/25 09:24:39;;;;;;;0.75;0.43;;;8.20;1.00;;;;;;5053052;28;20112;-65
2023/04/25 09:27:06;;;;;;;2.22;0.50;;;8.20;99.90;;;;;;5052727;28;20079;-65
2023/04/25 09:29:34;;;;;;;2.17;0.40;;;8.30;99.90;;;;;;5052510;28;20048;-65
2023/04/25 09:32:15;;;;;;;2.95;0.43;;;8.20;1.00;;;;;;5052941;28;20048;-65
2023/04/25 09:34:49;;;;;;;0.80;0.40;;;8.30;1.00;;;;;;5052908;28;20036;-65
2023/04/25 09:37:21;;;;;;;0.52;0.25;;;8.30;99.90;;;;;;5052486;28;20083;-65
2023/04/25 09:39:54;;;;;;;1.75;0.45;;;8.40;1.00;;;;;;5052477;28;20037;-65
2023/04/25 09:42:23;;;;;;;1.35;0.50;;;8.50;99.90;;;;;;5052874;28;20041;-66
2023/04/25 09:44:52;;;;;;;0.90;0.55;;;8.50;99.90;;;;;;5052788;28;20072;-66
2023/04/25 09:47:21;;;;;;;2.22;0.50;;;8.40;1.00;;;;;;5052793;28;20041;-65
2023/04/25 09:49:46;;;;;;;1.15;0.30;;;8.50;99.90;;;;;;5052451;28;20072;-66
2023/04/25 09:52:22;;;;;;;0.30;0.30;;;8.40;99.90;;;;;;5052797;28;20077;-66
2023/04/25 09:54:49;;;;;;;0.95;0.45;;;8.70;99.90;;;;;;5052655;28;20377;-66
2023/04/25 09:57:19;;;;;;;1.40;0.47;;;9.00;99.90;;;;;;5052179;28;20072;-66
2023/04/25 09:59:55;;;;;;;1.08;0.30;;;9.30;99.90;;;;;;5052723;28;20075;-66
2023/04/25 10:02:24;;;;;;;0.95;0.40;;;9.40;1.00;;;;;;5052605;28;20037;-66
2023/04/25 10:04:52;;;;;;;0.95;0.45;;;;;;;;;;5052340;28;20377;-65
2023/04/25 10:07:21;;;;;;;0.35;0.30;;;;;;;;;;5052194;28;20053;-68
2023/04/25 10:09:49;;;;;;;4.72;0.65;;;;;;;;;;5052639;28;20120;-65
2023/04/25 10:12:16;;;;;;;0.60;0.30;;;8.30;99.90;;;;;;5052402;28;20049;-66
2023/04/25 10:14:43;;;;;;;1.83;0.52;;;8.10;15.70;;;;;;5052608;28;20033;-66
2023/04/25 10:17:11;;;;;;;1.38;0.47;;;7.10;1.00;;;;;;5052504;28;20120;-66
2023/04/25 10:19:37;;;;;;;0.82;0.30;;;6.50;17.00;;;;;;5052614;28;20036;-66
2023/04/25 10:22:16;;;;;;;0.20;0.20;;;6.20;53.30;;;;;;5052163;28;20037;-66
2023/04/25 10:24:42;;;;;;;1.52;0.50;;;5.80;51.30;;;;;;5052257;28;20052;-66
2023/04/25 10:27:08;;;;;;;1.30;0.40;;;6.10;82.20;;;;;;5052518;28;20043;-65
2023/04/25 10:29:35;;;;;;;1.92;0.60;;;6.20;86.90;;;;;;5034272;28;20115;-66
2023/04/25 10:32:01;;;;;;;0.75;0.47;;;6.30;93.70;;;;;;5052410;28;20037;-67
2023/04/25 10:34:46;;;;;;;0.60;0.43;;;6.30;82.70;;;;;;5052490;28;20035;-66
2023/04/25 10:37:12;;;;;;;8.00;0.75;;;6.60;88.70;;;;;;5052148;28;20037;-69
2023/04/25 10:39:41;;;;;;;1.13;0.43;;;7.10;87.60;;;;;;5052085;28;20395;-66
2023/04/25 10:42:08;;;;;;;0.88;0.63;;;7.20;99.90;;;;;;5053540;28;20079;-67
2023/04/25 10:44:34;;;;;;;2.75;0.82;;;7.60;95.40;;;;;;5055906;28;20404;-66
2023/04/25 10:47:02;;;;;;;2.22;0.50;;;8.00;83.90;;;;;;5055821;28;20082;-67
2023/04/25 10:49:41;;;;;;;1.67;0.75;;;8.30;1.00;;;;;;5055292;28;20044;-66
2023/04/25 10:52:19;;;;;;;6.15;0.82;;;8.90;52.10;;;;;;5054439;28;20037;-67
2023/04/25 10:54:52;;;;;;;1.55;0.60;;;9.10;99.90;;;;;;5037566;28;20446;-66
2023/04/25 10:57:38;;;;;;;4.45;0.95;;;9.30;99.90;;;;;;5037404;28;22359;-66
2023/04/25 11:00:05;;;;;;;2.17;0.60;;;9.30;1.00;;;;;;5055262;28;20049;-66
2023/04/25 11:02:31;;;;;;;1.40;0.55;;;9.20;99.90;;;;;;5055215;28;20572;-66
2023/04/25 11:04:57;;;;;;;3.10;0.82;;;9.20;99.90;;;;;;5040597;28;20064;-66
2023/04/25 11:07:52;;;;;;;5.57;0.70;;;9.30;99.90;;;;;;5055363;28;20049;-66
2023/04/25 11:10:19;;;;;;;1.30;0.57;;;9.40;99.90;;;;;;5055254;28;20439;-67
2023/04/25 11:12:47;;;;;;;1.35;0.50;;;9.50;94.80;;;;;;5055348;28;20044;-67
2023/04/25 11:15:13;;;;;;;4.47;1.00;;;9.40;1.00;;;;;;5053769;28;20090;-67
2023/04/25 11:17:40;;;;;;;4.88;0.68;;;9.30;99.90;;;;;;5055047;28;20053;-68
2023/04/25 11:20:11;;;;;;;2.30;0.75;;;9.30;99.90;;;;;;5055087;28;20071;-67
2023/04/25 11:22:40;;;;;;;0.90;0.35;;;9.30;99.90;;;;;;5055221;28;20373;-68
2023/04/25 11:25:10;;;;;;;3.47;0.63;;;9.30;1.00;;;;;;5053547;28;20121;-67
2023/04/25 11:27:56;;;;;;;4.88;0.60;;;9.20;99.90;;;;;;5053280;28;20123;-66
2023/04/25 11:30:24;;;;;;;2.05;0.30;;;9.10;99.90;;;;;;5054622;28;20055;-67
2023/04/25 11:32:50;;;;;;;2.53;0.90;;;8.90;99.90;;;;;;5054844;28;20388;-67
2023/04/25 11:35:15;;;;;;;3.53;0.75;;;8.70;1.00;;;;;;5054896;28;20044;-67
2023/04/25 11:37:42;;;;;;;5.43;0.95;;;8.50;99.90;;;;;;5054689;28;20041;-67
2023/04/25 11:40:09;;;;;;;2.80;0.60;;;8.50;1.00;;;;;;5054850;28;20218;-64
2023/04/25 11:42:39;;;;;;;2.78;0.52;;;8.30;99.90;;;;;;5054698;28;20037;-64
2023/04/25 11:45:06;;;;;;;4.38;0.63;;;8.10;1.00;;;;;;5054720;28;20047;-65
2023/04/25 11:47:33;;;;;;;3.63;0.55;;;7.90;1.00;;;;;;5054683;28;20037;-66
2023/04/25 11:50:03;;;;;;;3.28;0.98;;;8.00;99.90;;;;;;5054597;28;20045;-66
2023/04/25 11:52:56;;;;;;;8.10;0.70;;;8.10;99.90;;;;;;5054160;28;20044;-67
2023/04/25 11:55:22;;;;;;;3.25;0.57;;;8.20;9.20;;;;;;5049753;28;20454;-66
2023/04/25 11:57:50;;;;;;;1.40;0.60;;;8.40;99.90;;;;;;5053939;28;20037;-67
2023/04/25 12:00:20;;;;;;;1.98;0.77;;;8.70;99.90;;;;;;5054573;28;20033;-67
2023/04/25 12:02:50;;;;;;;3.80;0.90;;;8.90;99.90;;;;;;5054500;28;20395;-67
2023/04/25 12:05:16;;;;;;;2.15;0.63;;;9.00;80.30;;;;;;5054134;28;20120;-67
2023/04/25 12:07:42;;;;;;;4.50;1.13;;;9.30;99.90;;;;;;5054170;28;20121;-67
2023/04/25 12:10:10;;;;;;;3.45;0.63;;;9.50;99.90;;;;;;5054050;28;20048;-67
2023/04/25 12:12:36;;;;;;;1.95;1.00;;;9.70;99.90;;;;;;5053830;28;20079;-68
2023/04/25 12:15:15;;;;;;;1.73;0.57;;;9.50;99.90;;;;;;5054016;28;20072;-68
2023/04/25 12:17:47;;;;;;;1.98;0.60;;;9.40;99.90;;;;;;5053800;28;20037;-68
2023/04/25 12:20:15;;;;;;;0.47;0.40;;;9.50;99.90;;;;;;5053754;28;20075;-68
2023/04/25 12:22:45;;;;;;;4.20;0.68;;;9.50;7.70;;;;;;5053672;28;20076;-68
2023/04/25 12:25:33;;;;;;;3.08;0.50;;;9.60;80.10;;;;;;5053658;28;20036;-68
2023/04/25 12:28:24;;;;;;;1.13;0.47;;;9.70;1.00;;;;;;5035982;28;20053;-68
2023/04/25 12:30:59;;;;;;;1.58;0.45;;;9.70;99.90;;;;;;5035602;28;20045;-67
2023/04/25 12:33:27;;;;;;;1.35;0.73;;;9.80;1.00;;;;;;5053722;28;20511;-68
2023/04/25 12:35:53;;;;;;;0.70;0.70;;;9.90;1.00;;;;;;5035575;28;20048;-68
2023/04/25 12:38:26;;;;;;;4.55;0.60;;;10.00;1.00;;;;;;5053683;28;20420;-68
2023/04/25 12:40:52;;;;;;;1.40;0.68;;;10.50;1.00;;;;;;5053559;28;20365;-67
2023/04/25 12:43:18;;;;;;;6.95;1.00;;;11.00;99.90;;;;;;5053565;28;20605;-68
2023/04/25 12:45:46;;;;;;;5.78;0.68;;;11.00;40.40;;;;;;5053214;28;20043;-68
2023/04/25 12:48:12;;;;;;;1.35;0.68;;;10.70;52.50;;;;;;5053398;28;20132;-69
2023/04/25 12:50:38;;;;;;;4.30;0.70;;;10.70;40.20;;;;;;5053319;28;20037;-68
2023/04/25 12:53:03;;;;;;;2.45;0.70;;;10.30;46.90;;;;;;5052936;28;20062;-68
2023/04/25 12:55:29;;;;;;;1.65;0.50;;;10.10;5.80;;;;;;5018728;28;20079;-67
2023/04/25 12:57:55;;;;;;;0.70;0.38;;;10.50;36.80;;;;;;5053312;28;20037;-68